Okabena, Minnesota
Current Conditions -  °F | °C
As of 7:55 AM on Friday 31 Oct 2014 (Local Time) from KOTG Reporting Station
Clear Clear  
Wind Chill:   Ceiling: Unl
Heat Index: 18°   Visibility: 10mi
Dew Point: 16°   Wind: 7mph
Humidity: 93%   Direction: 330°NNW
Pressure: 30.53"   Gusts: NA
Location:  43.74°N, 95.32°W
Report Text: KOTG 311255Z AUTO 33006KT 10SM CLR M08/M09 A3053 RMK AO1
Loading
Personal Weather Stations






























Interactive Weather Map
Tropical Storm Tracking
New forecast layout! Learn more

10-Day Weather Forecast

Advertisements
Track Severe Weather on mobile